sensor_id;sensor_type;location;lat;lon;timestamp;temperature;humidity
75994;DHT22;64680;53.800;9.988;2023-02-15T00:00:04;2.40;71.50
75994;DHT22;64680;53.800;9.988;2023-02-15T00:02:30;2.30;71.00
75994;DHT22;64680;53.800;9.988;2023-02-15T00:04:56;2.40;71.00
75994;DHT22;64680;53.800;9.988;2023-02-15T00:07:22;2.30;70.90
75994;DHT22;64680;53.800;9.988;2023-02-15T00:09:48;2.30;70.60
75994;DHT22;64680;53.800;9.988;2023-02-15T00:12:14;2.30;70.80
75994;DHT22;64680;53.800;9.988;2023-02-15T00:14:40;2.20;70.80
75994;DHT22;64680;53.800;9.988;2023-02-15T00:17:06;2.20;70.80
75994;DHT22;64680;53.800;9.988;2023-02-15T00:19:31;2.20;71.10
75994;DHT22;64680;53.800;9.988;2023-02-15T00:21:57;2.20;71.90
75994;DHT22;64680;53.800;9.988;2023-02-15T00:24:23;2.10;71.40
75994;DHT22;64680;53.800;9.988;2023-02-15T00:26:49;2.10;71.10
75994;DHT22;64680;53.800;9.988;2023-02-15T00:29:16;2.10;71.40
75994;DHT22;64680;53.800;9.988;2023-02-15T00:31:42;2.00;71.50
75994;DHT22;64680;53.800;9.988;2023-02-15T00:34:13;2.10;71.90
75994;DHT22;64680;53.800;9.988;2023-02-15T00:36:39;2.00;71.90
75994;DHT22;64680;53.800;9.988;2023-02-15T00:39:05;2.00;71.90
75994;DHT22;64680;53.800;9.988;2023-02-15T00:41:32;2.00;71.60
75994;DHT22;64680;53.800;9.988;2023-02-15T00:43:58;2.00;72.10
75994;DHT22;64680;53.800;9.988;2023-02-15T00:46:24;2.00;72.00
75994;DHT22;64680;53.800;9.988;2023-02-15T00:48:49;2.00;72.10
75994;DHT22;64680;53.800;9.988;2023-02-15T00:51:15;2.00;71.90
75994;DHT22;64680;53.800;9.988;2023-02-15T00:53:42;2.10;72.20
75994;DHT22;64680;53.800;9.988;2023-02-15T00:56:09;2.00;72.10
75994;DHT22;64680;53.800;9.988;2023-02-15T00:58:36;2.10;72.20
75994;DHT22;64680;53.800;9.988;2023-02-15T01:01:07;2.10;72.40
75994;DHT22;64680;53.800;9.988;2023-02-15T01:03:33;2.10;72.50
75994;DHT22;64680;53.800;9.988;2023-02-15T01:05:59;2.10;72.70
75994;DHT22;64680;53.800;9.988;2023-02-15T01:08:25;2.00;72.60
75994;DHT22;64680;53.800;9.988;2023-02-15T01:10:51;2.10;72.60
75994;DHT22;64680;53.800;9.988;2023-02-15T01:13:17;2.00;72.10
75994;DHT22;64680;53.800;9.988;2023-02-15T01:15:43;2.10;72.40
75994;DHT22;64680;53.800;9.988;2023-02-15T01:18:10;2.10;72.80
75994;DHT22;64680;53.800;9.988;2023-02-15T01:20:38;2.10;72.90
75994;DHT22;64680;53.800;9.988;2023-02-15T01:23:06;2.10;73.00
75994;DHT22;64680;53.800;9.988;2023-02-15T01:25:33;2.10;72.70
75994;DHT22;64680;53.800;9.988;2023-02-15T01:27:58;2.10;73.00
75994;DHT22;64680;53.800;9.988;2023-02-15T01:30:24;2.10;73.00
75994;DHT22;64680;53.800;9.988;2023-02-15T01:32:50;2.10;73.20
75994;DHT22;64680;53.800;9.988;2023-02-15T01:35:15;2.10;73.30
75994;DHT22;64680;53.800;9.988;2023-02-15T01:37:41;2.20;73.30
75994;DHT22;64680;53.800;9.988;2023-02-15T01:40:14;2.20;73.40
75994;DHT22;64680;53.800;9.988;2023-02-15T01:42:40;2.20;73.50
75994;DHT22;64680;53.800;9.988;2023-02-15T01:47:44;2.30;73.90
75994;DHT22;64680;53.800;9.988;2023-02-15T01:50:15;2.20;74.00
75994;DHT22;64680;53.800;9.988;2023-02-15T01:55:33;2.30;74.50
75994;DHT22;64680;53.800;9.988;2023-02-15T01:58:01;2.30;74.70
75994;DHT22;64680;53.800;9.988;2023-02-15T02:00:27;2.30;74.80
75994;DHT22;64680;53.800;9.988;2023-02-15T02:02:54;2.30;74.90
75994;DHT22;64680;53.800;9.988;2023-02-15T02:05:21;2.30;74.90
75994;DHT22;64680;53.800;9.988;2023-02-15T02:07:48;2.30;74.90
75994;DHT22;64680;53.800;9.988;2023-02-15T02:10:18;2.30;74.90
75994;DHT22;64680;53.800;9.988;2023-02-15T02:12:47;2.30;75.00
75994;DHT22;64680;53.800;9.988;2023-02-15T02:15:14;2.30;75.20
75994;DHT22;64680;53.800;9.988;2023-02-15T02:20:33;2.30;75.40
75994;DHT22;64680;53.800;9.988;2023-02-15T02:39:30;2.40;76.00
75994;DHT22;64680;53.800;9.988;2023-02-15T02:42:27;2.30;76.10
75994;DHT22;64680;53.800;9.988;2023-02-15T02:45:06;2.40;76.30
75994;DHT22;64680;53.800;9.988;2023-02-15T02:47:38;2.40;76.10
75994;DHT22;64680;53.800;9.988;2023-02-15T02:50:08;2.30;76.50
75994;DHT22;64680;53.800;9.988;2023-02-15T02:52:43;2.30;76.70
75994;DHT22;64680;53.800;9.988;2023-02-15T02:55:22;2.30;76.60
75994;DHT22;64680;53.800;9.988;2023-02-15T03:00:30;2.30;76.80
75994;DHT22;64680;53.800;9.988;2023-02-15T03:03:03;2.30;76.90
75994;DHT22;64680;53.800;9.988;2023-02-15T03:05:31;2.40;77.00
75994;DHT22;64680;53.800;9.988;2023-02-15T03:07:58;2.40;76.90
75994;DHT22;64680;53.800;9.988;2023-02-15T03:10:27;2.40;77.00
75994;DHT22;64680;53.800;9.988;2023-02-15T03:12:54;2.40;76.90
75994;DHT22;64680;53.800;9.988;2023-02-15T03:15:23;2.40;77.20
75994;DHT22;64680;53.800;9.988;2023-02-15T03:17:57;2.40;77.40
75994;DHT22;64680;53.800;9.988;2023-02-15T03:20:33;2.40;77.30
75994;DHT22;64680;53.800;9.988;2023-02-15T03:23:04;2.40;77.50
75994;DHT22;64680;53.800;9.988;2023-02-15T03:25:37;2.40;77.40
75994;DHT22;64680;53.800;9.988;2023-02-15T03:28:14;2.40;77.60
75994;DHT22;64680;53.800;9.988;2023-02-15T03:30:45;2.40;77.60
75994;DHT22;64680;53.800;9.988;2023-02-15T03:33:11;2.40;77.80
75994;DHT22;64680;53.800;9.988;2023-02-15T03:36:17;2.40;77.70
75994;DHT22;64680;53.800;9.988;2023-02-15T03:39:05;2.50;78.10
75994;DHT22;64680;53.800;9.988;2023-02-15T03:41:37;2.40;78.10
75994;DHT22;64680;53.800;9.988;2023-02-15T03:44:15;2.50;78.50
75994;DHT22;64680;53.800;9.988;2023-02-15T03:46:48;2.40;78.60
75994;DHT22;64680;53.800;9.988;2023-02-15T03:49:24;2.40;78.70
75994;DHT22;64680;53.800;9.988;2023-02-15T03:51:53;2.40;79.00
75994;DHT22;64680;53.800;9.988;2023-02-15T03:54:25;2.40;79.10
75994;DHT22;64680;53.800;9.988;2023-02-15T04:00:02;2.40;78.90
75994;DHT22;64680;53.800;9.988;2023-02-15T04:05:45;2.40;79.30
75994;DHT22;64680;53.800;9.988;2023-02-15T04:08:12;2.50;79.50
75994;DHT22;64680;53.800;9.988;2023-02-15T04:10:38;2.50;79.60
75994;DHT22;64680;53.800;9.988;2023-02-15T04:13:29;2.50;79.70
75994;DHT22;64680;53.800;9.988;2023-02-15T04:15:55;2.50;79.60
75994;DHT22;64680;53.800;9.988;2023-02-15T04:18:40;2.50;79.80
75994;DHT22;64680;53.800;9.988;2023-02-15T04:21:25;2.50;79.90
75994;DHT22;64680;53.800;9.988;2023-02-15T04:24:11;2.50;80.40
75994;DHT22;64680;53.800;9.988;2023-02-15T04:26:56;2.50;80.20
75994;DHT22;64680;53.800;9.988;2023-02-15T04:29:23;2.50;79.80
75994;DHT22;64680;53.800;9.988;2023-02-15T04:31:50;2.50;80.30
75994;DHT22;64680;53.800;9.988;2023-02-15T04:34:16;2.50;80.40
75994;DHT22;64680;53.800;9.988;2023-02-15T04:36:42;2.50;80.60
75994;DHT22;64680;53.800;9.988;2023-02-15T04:39:08;2.50;80.60
75994;DHT22;64680;53.800;9.988;2023-02-15T04:41:35;2.50;80.20
75994;DHT22;64680;53.800;9.988;2023-02-15T04:44:01;2.50;80.50
75994;DHT22;64680;53.800;9.988;2023-02-15T04:46:27;2.50;80.70
75994;DHT22;64680;53.800;9.988;2023-02-15T04:48:54;2.60;80.80
75994;DHT22;64680;53.800;9.988;2023-02-15T04:51:19;2.60;80.90
75994;DHT22;64680;53.800;9.988;2023-02-15T04:53:45;2.50;81.00
75994;DHT22;64680;53.800;9.988;2023-02-15T04:56:11;2.60;81.20
75994;DHT22;64680;53.800;9.988;2023-02-15T04:58:36;2.60;81.20
75994;DHT22;64680;53.800;9.988;2023-02-15T05:01:09;2.60;81.30
75994;DHT22;64680;53.800;9.988;2023-02-15T05:03:35;2.60;81.40
75994;DHT22;64680;53.800;9.988;2023-02-15T05:06:01;2.60;81.50
75994;DHT22;64680;53.800;9.988;2023-02-15T05:08:27;2.60;81.70
75994;DHT22;64680;53.800;9.988;2023-02-15T05:10:52;2.70;81.90
75994;DHT22;64680;53.800;9.988;2023-02-15T05:13:18;2.60;81.80
75994;DHT22;64680;53.800;9.988;2023-02-15T05:15:50;2.70;82.10
75994;DHT22;64680;53.800;9.988;2023-02-15T05:18:17;2.70;82.10
75994;DHT22;64680;53.800;9.988;2023-02-15T05:20:43;2.70;82.50
75994;DHT22;64680;53.800;9.988;2023-02-15T05:23:09;2.60;82.60
75994;DHT22;64680;53.800;9.988;2023-02-15T05:25:35;2.60;82.40
75994;DHT22;64680;53.800;9.988;2023-02-15T05:28:20;2.60;83.00
75994;DHT22;64680;53.800;9.988;2023-02-15T05:30:51;2.60;83.00
75994;DHT22;64680;53.800;9.988;2023-02-15T05:33:25;2.60;83.00
75994;DHT22;64680;53.800;9.988;2023-02-15T05:35:51;2.60;83.20
75994;DHT22;64680;53.800;9.988;2023-02-15T05:38:16;2.60;83.00
75994;DHT22;64680;53.800;9.988;2023-02-15T05:40:42;2.60;83.00
75994;DHT22;64680;53.800;9.988;2023-02-15T05:43:08;2.60;83.90
75994;DHT22;64680;53.800;9.988;2023-02-15T05:45:33;2.60;82.90
75994;DHT22;64680;53.800;9.988;2023-02-15T05:47:59;2.50;83.10
75994;DHT22;64680;53.800;9.988;2023-02-15T05:50:25;2.50;83.00
75994;DHT22;64680;53.800;9.988;2023-02-15T05:52:51;2.50;83.10
75994;DHT22;64680;53.800;9.988;2023-02-15T05:55:17;2.50;83.00
75994;DHT22;64680;53.800;9.988;2023-02-15T05:57:43;2.50;82.80
75994;DHT22;64680;53.800;9.988;2023-02-15T06:00:09;2.50;82.80
75994;DHT22;64680;53.800;9.988;2023-02-15T06:02:36;2.60;82.50
75994;DHT22;64680;53.800;9.988;2023-02-15T06:05:03;2.60;82.70
75994;DHT22;64680;53.800;9.988;2023-02-15T06:07:29;2.60;82.90
75994;DHT22;64680;53.800;9.988;2023-02-15T06:09:55;2.60;82.90
75994;DHT22;64680;53.800;9.988;2023-02-15T06:12:20;2.60;82.90
75994;DHT22;64680;53.800;9.988;2023-02-15T06:14:46;2.70;83.00
75994;DHT22;64680;53.800;9.988;2023-02-15T06:17:12;2.70;83.00
75994;DHT22;64680;53.800;9.988;2023-02-15T06:19:37;2.60;83.30
75994;DHT22;64680;53.800;9.988;2023-02-15T06:22:03;2.60;83.80
75994;DHT22;64680;53.800;9.988;2023-02-15T06:24:28;2.60;83.90
75994;DHT22;64680;53.800;9.988;2023-02-15T06:26:54;2.60;83.80
75994;DHT22;64680;53.800;9.988;2023-02-15T06:29:19;2.60;84.10
75994;DHT22;64680;53.800;9.988;2023-02-15T06:31:45;2.50;84.40
75994;DHT22;64680;53.800;9.988;2023-02-15T06:34:10;2.50;84.00
75994;DHT22;64680;53.800;9.988;2023-02-15T06:36:36;2.50;84.70
75994;DHT22;64680;53.800;9.988;2023-02-15T06:39:02;2.50;85.40
75994;DHT22;64680;53.800;9.988;2023-02-15T06:41:28;2.50;84.60
75994;DHT22;64680;53.800;9.988;2023-02-15T06:43:54;2.50;85.00
75994;DHT22;64680;53.800;9.988;2023-02-15T06:46:19;2.50;85.10
75994;DHT22;64680;53.800;9.988;2023-02-15T06:48:45;2.60;85.20
75994;DHT22;64680;53.800;9.988;2023-02-15T06:51:10;2.60;85.20
75994;DHT22;64680;53.800;9.988;2023-02-15T06:53:36;2.60;85.40
75994;DHT22;64680;53.800;9.988;2023-02-15T06:56:03;2.50;85.40
75994;DHT22;64680;53.800;9.988;2023-02-15T06:58:32;2.50;85.30
75994;DHT22;64680;53.800;9.988;2023-02-15T07:00:58;2.50;85.50
75994;DHT22;64680;53.800;9.988;2023-02-15T07:03:23;2.50;85.60
75994;DHT22;64680;53.800;9.988;2023-02-15T07:05:57;2.50;85.50
75994;DHT22;64680;53.800;9.988;2023-02-15T07:08:24;2.50;85.90
75994;DHT22;64680;53.800;9.988;2023-02-15T07:10:50;2.50;86.00
75994;DHT22;64680;53.800;9.988;2023-02-15T07:13:16;2.50;85.90
75994;DHT22;64680;53.800;9.988;2023-02-15T07:15:42;2.50;85.60
75994;DHT22;64680;53.800;9.988;2023-02-15T07:18:08;2.60;85.70
75994;DHT22;64680;53.800;9.988;2023-02-15T07:20:34;2.60;86.10
75994;DHT22;64680;53.800;9.988;2023-02-15T07:23:01;2.50;86.20
75994;DHT22;64680;53.800;9.988;2023-02-15T07:25:27;2.60;86.10
75994;DHT22;64680;53.800;9.988;2023-02-15T07:28:00;2.70;86.20
75994;DHT22;64680;53.800;9.988;2023-02-15T07:30:27;2.70;86.50
75994;DHT22;64680;53.800;9.988;2023-02-15T07:32:57;2.60;86.70
75994;DHT22;64680;53.800;9.988;2023-02-15T07:35:49;2.70;86.50
75994;DHT22;64680;53.800;9.988;2023-02-15T07:38:15;2.60;87.00
75994;DHT22;64680;53.800;9.988;2023-02-15T07:40:41;2.60;87.30
75994;DHT22;64680;53.800;9.988;2023-02-15T07:43:10;2.60;87.20
75994;DHT22;64680;53.800;9.988;2023-02-15T07:45:36;2.60;87.10
75994;DHT22;64680;53.800;9.988;2023-02-15T07:48:03;2.60;87.10
75994;DHT22;64680;53.800;9.988;2023-02-15T07:50:28;2.70;87.30
75994;DHT22;64680;53.800;9.988;2023-02-15T07:52:54;2.80;87.40
75994;DHT22;64680;53.800;9.988;2023-02-15T07:55:20;2.70;87.70
75994;DHT22;64680;53.800;9.988;2023-02-15T07:57:48;2.70;87.90
75994;DHT22;64680;53.800;9.988;2023-02-15T08:00:16;2.70;88.10
75994;DHT22;64680;53.800;9.988;2023-02-15T08:02:47;2.60;88.30
75994;DHT22;64680;53.800;9.988;2023-02-15T08:05:13;2.60;88.30
75994;DHT22;64680;53.800;9.988;2023-02-15T08:07:39;2.70;88.50
75994;DHT22;64680;53.800;9.988;2023-02-15T08:10:04;2.70;88.50
75994;DHT22;64680;53.800;9.988;2023-02-15T08:12:30;2.60;88.60
75994;DHT22;64680;53.800;9.988;2023-02-15T08:14:56;2.60;88.60
75994;DHT22;64680;53.800;9.988;2023-02-15T08:17:21;2.60;88.30
75994;DHT22;64680;53.800;9.988;2023-02-15T08:19:48;2.70;88.70
75994;DHT22;64680;53.800;9.988;2023-02-15T08:22:14;2.70;88.70
75994;DHT22;64680;53.800;9.988;2023-02-15T08:24:40;2.70;88.70
75994;DHT22;64680;53.800;9.988;2023-02-15T08:27:08;2.70;89.30
75994;DHT22;64680;53.800;9.988;2023-02-15T08:29:36;2.70;89.20
75994;DHT22;64680;53.800;9.988;2023-02-15T08:32:11;2.70;89.40
75994;DHT22;64680;53.800;9.988;2023-02-15T08:34:38;2.60;89.50
75994;DHT22;64680;53.800;9.988;2023-02-15T08:37:04;2.70;89.50
75994;DHT22;64680;53.800;9.988;2023-02-15T08:39:31;2.70;89.70
75994;DHT22;64680;53.800;9.988;2023-02-15T08:41:56;2.70;89.70
75994;DHT22;64680;53.800;9.988;2023-02-15T08:44:22;2.70;90.00
75994;DHT22;64680;53.800;9.988;2023-02-15T08:46:49;2.70;90.30
75994;DHT22;64680;53.800;9.988;2023-02-15T08:49:20;2.70;90.20
75994;DHT22;64680;53.800;9.988;2023-02-15T08:51:47;2.70;90.10
75994;DHT22;64680;53.800;9.988;2023-02-15T08:54:15;2.80;90.30
75994;DHT22;64680;53.800;9.988;2023-02-15T08:56:43;2.90;90.40
75994;DHT22;64680;53.800;9.988;2023-02-15T08:59:16;3.00;90.50
75994;DHT22;64680;53.800;9.988;2023-02-15T09:01:41;3.10;90.70
75994;DHT22;64680;53.800;9.988;2023-02-15T09:04:08;3.10;90.80
75994;DHT22;64680;53.800;9.988;2023-02-15T09:06:34;3.00;90.50
75994;DHT22;64680;53.800;9.988;2023-02-15T09:09:00;3.00;90.50
75994;DHT22;64680;53.800;9.988;2023-02-15T09:11:28;3.10;90.60
75994;DHT22;64680;53.800;9.988;2023-02-15T09:13:57;3.10;90.60
75994;DHT22;64680;53.800;9.988;2023-02-15T09:16:26;3.30;90.80
75994;DHT22;64680;53.800;9.988;2023-02-15T09:18:52;3.30;90.50
75994;DHT22;64680;53.800;9.988;2023-02-15T09:21:21;3.20;90.10
75994;DHT22;64680;53.800;9.988;2023-02-15T09:23:49;3.30;90.00
75994;DHT22;64680;53.800;9.988;2023-02-15T09:26:16;3.30;89.70
75994;DHT22;64680;53.800;9.988;2023-02-15T09:28:43;3.30;89.70
75994;DHT22;64680;53.800;9.988;2023-02-15T09:31:15;3.40;89.00
75994;DHT22;64680;53.800;9.988;2023-02-15T09:33:43;3.30;88.00
75994;DHT22;64680;53.800;9.988;2023-02-15T09:36:24;3.30;88.00
75994;DHT22;64680;53.800;9.988;2023-02-15T09:39:03;3.30;87.80
75994;DHT22;64680;53.800;9.988;2023-02-15T09:45:13;3.60;87.80
75994;DHT22;64680;53.800;9.988;2023-02-15T09:47:48;3.60;86.40
75994;DHT22;64680;53.800;9.988;2023-02-15T10:06:53;3.70;83.30
75994;DHT22;64680;53.800;9.988;2023-02-15T10:15:10;3.60;82.60
75994;DHT22;64680;53.800;9.988;2023-02-15T10:23:37;3.80;83.10
75994;DHT22;64680;53.800;9.988;2023-02-15T10:26:21;3.70;83.10
75994;DHT22;64680;53.800;9.988;2023-02-15T10:37:17;4.00;81.80
75994;DHT22;64680;53.800;9.988;2023-02-15T10:43:08;4.00;81.90
75994;DHT22;64680;53.800;9.988;2023-02-15T10:45:58;4.10;82.00
75994;DHT22;64680;53.800;9.988;2023-02-15T10:51:07;4.30;81.80
75994;DHT22;64680;53.800;9.988;2023-02-15T10:53:55;4.30;81.20
75994;DHT22;64680;53.800;9.988;2023-02-15T10:56:36;4.30;81.00
75994;DHT22;64680;53.800;9.988;2023-02-15T11:01:52;4.40;79.50
75994;DHT22;64680;53.800;9.988;2023-02-15T11:04:36;4.40;78.10
75994;DHT22;64680;53.800;9.988;2023-02-15T11:07:16;4.30;78.20
75994;DHT22;64680;53.800;9.988;2023-02-15T11:09:52;4.40;78.30
75994;DHT22;64680;53.800;9.988;2023-02-15T11:12:24;4.30;76.20
75994;DHT22;64680;53.800;9.988;2023-02-15T11:15:00;4.20;76.90
75994;DHT22;64680;53.800;9.988;2023-02-15T11:17:50;4.20;79.20
75994;DHT22;64680;53.800;9.988;2023-02-15T11:20:31;4.20;79.80
75994;DHT22;64680;53.800;9.988;2023-02-15T11:23:01;4.40;80.40
75994;DHT22;64680;53.800;9.988;2023-02-15T11:25:32;4.40;79.90
75994;DHT22;64680;53.800;9.988;2023-02-15T11:28:03;4.40;77.30
75994;DHT22;64680;53.800;9.988;2023-02-15T11:30:47;4.40;79.20
75994;DHT22;64680;53.800;9.988;2023-02-15T11:33:21;4.50;78.60
75994;DHT22;64680;53.800;9.988;2023-02-15T11:35:53;4.50;79.70
75994;DHT22;64680;53.800;9.988;2023-02-15T11:38:22;4.70;81.00
75994;DHT22;64680;53.800;9.988;2023-02-15T11:41:09;4.70;78.50
75994;DHT22;64680;53.800;9.988;2023-02-15T11:43:46;4.70;77.20
75994;DHT22;64680;53.800;9.988;2023-02-15T11:46:14;4.70;78.00
75994;DHT22;64680;53.800;9.988;2023-02-15T11:48:41;4.70;74.90
75994;DHT22;64680;53.800;9.988;2023-02-15T11:51:21;4.70;77.30
75994;DHT22;64680;53.800;9.988;2023-02-15T11:53:48;4.80;74.90
75994;DHT22;64680;53.800;9.988;2023-02-15T11:56:20;4.80;76.30
75994;DHT22;64680;53.800;9.988;2023-02-15T11:58:56;4.80;74.80
75994;DHT22;64680;53.800;9.988;2023-02-15T12:01:41;4.70;74.90
75994;DHT22;64680;53.800;9.988;2023-02-15T12:04:21;4.80;76.00
75994;DHT22;64680;53.800;9.988;2023-02-15T12:09:45;5.00;76.20
75994;DHT22;64680;53.800;9.988;2023-02-15T12:14:50;5.00;71.70
75994;DHT22;64680;53.800;9.988;2023-02-15T12:17:17;5.10;72.10
75994;DHT22;64680;53.800;9.988;2023-02-15T12:19:43;5.10;71.90
75994;DHT22;64680;53.800;9.988;2023-02-15T12:22:31;5.00;70.00
75994;DHT22;64680;53.800;9.988;2023-02-15T12:25:04;5.00;73.60
75994;DHT22;64680;53.800;9.988;2023-02-15T12:27:42;5.10;73.20
75994;DHT22;64680;53.800;9.988;2023-02-15T12:35:47;5.30;65.50
75994;DHT22;64680;53.800;9.988;2023-02-15T12:38:23;5.40;68.70
75994;DHT22;64680;53.800;9.988;2023-02-15T12:46:29;5.50;68.10
75994;DHT22;64680;53.800;9.988;2023-02-15T12:51:49;5.50;68.70
75994;DHT22;64680;53.800;9.988;2023-02-15T12:54:17;5.40;67.80
75994;DHT22;64680;53.800;9.988;2023-02-15T12:56:46;5.40;68.20
75994;DHT22;64680;53.800;9.988;2023-02-15T12:59:14;5.40;67.60
75994;DHT22;64680;53.800;9.988;2023-02-15T13:01:41;5.30;69.30
75994;DHT22;64680;53.800;9.988;2023-02-15T13:06:49;5.20;71.00
75994;DHT22;64680;53.800;9.988;2023-02-15T13:12:10;5.10;71.80
75994;DHT22;64680;53.800;9.988;2023-02-15T13:14:36;5.00;72.40
75994;DHT22;64680;53.800;9.988;2023-02-15T13:17:04;4.90;73.20
75994;DHT22;64680;53.800;9.988;2023-02-15T13:20:20;4.90;74.90
75994;DHT22;64680;53.800;9.988;2023-02-15T13:22:51;4.90;75.70
75994;DHT22;64680;53.800;9.988;2023-02-15T13:25:21;5.00;76.80
75994;DHT22;64680;53.800;9.988;2023-02-15T13:27:51;5.00;75.50
75994;DHT22;64680;53.800;9.988;2023-02-15T13:30:31;5.20;75.40
75994;DHT22;64680;53.800;9.988;2023-02-15T13:33:10;5.20;71.70
75994;DHT22;64680;53.800;9.988;2023-02-15T13:35:58;5.30;72.90
75994;DHT22;64680;53.800;9.988;2023-02-15T13:38:45;5.40;74.50
75994;DHT22;64680;53.800;9.988;2023-02-15T13:49:48;5.80;65.80
75994;DHT22;64680;53.800;9.988;2023-02-15T13:52:20;5.90;67.40
75994;DHT22;64680;53.800;9.988;2023-02-15T14:00:21;5.90;64.00
75994;DHT22;64680;53.800;9.988;2023-02-15T14:05:30;6.00;63.80
75994;DHT22;64680;53.800;9.988;2023-02-15T14:15:58;6.20;61.80
75994;DHT22;64680;53.800;9.988;2023-02-15T14:18:48;6.40;60.80
75994;DHT22;64680;53.800;9.988;2023-02-15T14:21:32;6.40;61.40
75994;DHT22;64680;53.800;9.988;2023-02-15T14:24:21;6.50;62.00
75994;DHT22;64680;53.800;9.988;2023-02-15T14:30:17;6.60;59.80
75994;DHT22;64680;53.800;9.988;2023-02-15T14:32:33;6.50;59.40
75994;DHT22;64680;53.800;9.988;2023-02-15T14:35:03;6.40;58.50
75994;DHT22;64680;53.800;9.988;2023-02-15T14:37:58;6.30;58.20
75994;DHT22;64680;53.800;9.988;2023-02-15T14:40:30;6.10;61.20
75994;DHT22;64680;53.800;9.988;2023-02-15T14:43:37;6.00;60.90
75994;DHT22;64680;53.800;9.988;2023-02-15T14:51:09;5.80;66.10
75994;DHT22;64680;53.800;9.988;2023-02-15T14:53:37;5.70;67.80
75994;DHT22;64680;53.800;9.988;2023-02-15T15:01:32;5.60;71.10
75994;DHT22;64680;53.800;9.988;2023-02-15T15:04:23;5.50;72.40
75994;DHT22;64680;53.800;9.988;2023-02-15T15:07:19;5.40;73.70
75994;DHT22;64680;53.800;9.988;2023-02-15T15:09:58;5.40;74.10
75994;DHT22;64680;53.800;9.988;2023-02-15T15:14:50;5.30;74.50
75994;DHT22;64680;53.800;9.988;2023-02-15T15:20:12;5.20;76.00
75994;DHT22;64680;53.800;9.988;2023-02-15T15:22:39;5.20;76.40
75994;DHT22;64680;53.800;9.988;2023-02-15T15:27:56;5.10;77.50
75994;DHT22;64680;53.800;9.988;2023-02-15T15:35:51;5.00;78.50
75994;DHT22;64680;53.800;9.988;2023-02-15T15:44:19;4.90;79.20
75994;DHT22;64680;53.800;9.988;2023-02-15T15:48:45;4.80;80.00
75994;DHT22;64680;53.800;9.988;2023-02-15T15:51:52;4.70;80.50
75994;DHT22;64680;53.800;9.988;2023-02-15T15:54:18;4.60;80.60
75994;DHT22;64680;53.800;9.988;2023-02-15T15:56:49;4.50;81.00
75994;DHT22;64680;53.800;9.988;2023-02-15T15:59:25;4.40;81.20
75994;DHT22;64680;53.800;9.988;2023-02-15T16:01:51;4.30;81.20
75994;DHT22;64680;53.800;9.988;2023-02-15T16:04:31;4.20;81.50
75994;DHT22;64680;53.800;9.988;2023-02-15T16:07:01;4.20;81.90
75994;DHT22;64680;53.800;9.988;2023-02-15T16:09:38;4.10;82.20
75994;DHT22;64680;53.800;9.988;2023-02-15T16:12:04;4.00;82.60
75994;DHT22;64680;53.800;9.988;2023-02-15T16:14:40;4.00;83.00
75994;DHT22;64680;53.800;9.988;2023-02-15T16:17:13;4.00;83.10
75994;DHT22;64680;53.800;9.988;2023-02-15T16:19:40;3.90;83.20
75994;DHT22;64680;53.800;9.988;2023-02-15T16:22:16;3.90;83.40
75994;DHT22;64680;53.800;9.988;2023-02-15T16:27:43;3.80;83.70
75994;DHT22;64680;53.800;9.988;2023-02-15T16:30:31;3.80;83.60
75994;DHT22;64680;53.800;9.988;2023-02-15T16:33:11;3.80;83.60
75994;DHT22;64680;53.800;9.988;2023-02-15T16:41:12;3.60;83.80
75994;DHT22;64680;53.800;9.988;2023-02-15T16:43:39;3.50;83.70
75994;DHT22;64680;53.800;9.988;2023-02-15T16:46:10;3.50;83.70
75994;DHT22;64680;53.800;9.988;2023-02-15T16:48:40;3.50;83.80
75994;DHT22;64680;53.800;9.988;2023-02-15T16:51:07;3.40;83.70
75994;DHT22;64680;53.800;9.988;2023-02-15T16:53:33;3.40;83.70
75994;DHT22;64680;53.800;9.988;2023-02-15T16:56:00;3.40;83.90
75994;DHT22;64680;53.800;9.988;2023-02-15T16:58:56;3.30;83.90
75994;DHT22;64680;53.800;9.988;2023-02-15T17:01:25;3.30;83.90
75994;DHT22;64680;53.800;9.988;2023-02-15T17:04:13;3.30;83.80
75994;DHT22;64680;53.800;9.988;2023-02-15T17:06:39;3.30;83.80
75994;DHT22;64680;53.800;9.988;2023-02-15T17:09:13;3.20;83.80
75994;DHT22;64680;53.800;9.988;2023-02-15T17:11:44;3.20;83.60
75994;DHT22;64680;53.800;9.988;2023-02-15T17:14:10;3.20;83.60
75994;DHT22;64680;53.800;9.988;2023-02-15T17:19:24;3.00;83.30
75994;DHT22;64680;53.800;9.988;2023-02-15T17:21:56;3.00;83.20
75994;DHT22;64680;53.800;9.988;2023-02-15T17:24:38;3.00;83.20
75994;DHT22;64680;53.800;9.988;2023-02-15T17:27:18;2.90;83.10
75994;DHT22;64680;53.800;9.988;2023-02-15T17:29:50;2.90;83.10
75994;DHT22;64680;53.800;9.988;2023-02-15T17:32:24;2.90;83.00
75994;DHT22;64680;53.800;9.988;2023-02-15T17:35:19;2.90;82.90
75994;DHT22;64680;53.800;9.988;2023-02-15T17:37:48;2.90;82.80
75994;DHT22;64680;53.800;9.988;2023-02-15T17:40:27;2.80;82.50
75994;DHT22;64680;53.800;9.988;2023-02-15T17:42:53;2.80;82.50
75994;DHT22;64680;53.800;9.988;2023-02-15T17:45:20;2.80;82.30
75994;DHT22;64680;53.800;9.988;2023-02-15T17:47:48;2.80;82.30
75994;DHT22;64680;53.800;9.988;2023-02-15T17:50:22;2.80;82.20
75994;DHT22;64680;53.800;9.988;2023-02-15T17:52:49;2.80;82.20
75994;DHT22;64680;53.800;9.988;2023-02-15T17:55:17;2.80;82.10
75994;DHT22;64680;53.800;9.988;2023-02-15T17:58:10;2.70;82.10
75994;DHT22;64680;53.800;9.988;2023-02-15T18:00:44;2.70;82.00
75994;DHT22;64680;53.800;9.988;2023-02-15T18:03:42;2.80;81.70
75994;DHT22;64680;53.800;9.988;2023-02-15T18:06:27;2.80;81.60
75994;DHT22;64680;53.800;9.988;2023-02-15T18:09:18;2.80;81.50
75994;DHT22;64680;53.800;9.988;2023-02-15T18:14:43;2.80;81.40
75994;DHT22;64680;53.800;9.988;2023-02-15T18:17:11;2.80;81.30
75994;DHT22;64680;53.800;9.988;2023-02-15T18:19:38;2.80;81.20
75994;DHT22;64680;53.800;9.988;2023-02-15T18:22:16;2.80;81.20
75994;DHT22;64680;53.800;9.988;2023-02-15T18:24:43;2.80;81.00
75994;DHT22;64680;53.800;9.988;2023-02-15T18:27:13;2.80;81.10
75994;DHT22;64680;53.800;9.988;2023-02-15T18:29:39;2.70;81.10
75994;DHT22;64680;53.800;9.988;2023-02-15T18:32:17;2.70;81.00
75994;DHT22;64680;53.800;9.988;2023-02-15T18:34:46;2.70;80.90
75994;DHT22;64680;53.800;9.988;2023-02-15T18:37:15;2.70;80.90
75994;DHT22;64680;53.800;9.988;2023-02-15T18:39:45;2.70;80.90
75994;DHT22;64680;53.800;9.988;2023-02-15T18:42:32;2.60;80.70
75994;DHT22;64680;53.800;9.988;2023-02-15T18:47:46;2.60;80.60
75994;DHT22;64680;53.800;9.988;2023-02-15T18:50:14;2.60;80.60
75994;DHT22;64680;53.800;9.988;2023-02-15T18:52:40;2.60;80.50
75994;DHT22;64680;53.800;9.988;2023-02-15T18:55:33;2.50;80.50
75994;DHT22;64680;53.800;9.988;2023-02-15T18:58:00;2.50;80.40
75994;DHT22;64680;53.800;9.988;2023-02-15T19:00:28;2.50;80.40
75994;DHT22;64680;53.800;9.988;2023-02-15T19:02:55;2.50;80.40
75994;DHT22;64680;53.800;9.988;2023-02-15T19:05:21;2.40;81.10
75994;DHT22;64680;53.800;9.988;2023-02-15T19:07:48;2.40;80.30
75994;DHT22;64680;53.800;9.988;2023-02-15T19:10:17;2.40;80.30
75994;DHT22;64680;53.800;9.988;2023-02-15T19:12:43;2.40;80.40